createdAt,value
2023-01-31T00:01:24.470Z,17.70
2023-01-31T00:04:00.024Z,17.67
2023-01-31T00:06:27.527Z,16.27
2023-01-31T00:08:54.820Z,22.07
2023-01-31T00:11:23.912Z,16.43
2023-01-31T00:13:50.751Z,13.50
2023-01-31T00:16:18.417Z,14.30
2023-01-31T00:18:45.667Z,10.03
2023-01-31T00:21:14.689Z,16.97
2023-01-31T00:23:42.258Z,21.77
2023-01-31T00:26:23.604Z,14.37
2023-01-31T00:28:51.757Z,18.93
2023-01-31T00:31:18.996Z,16.07
2023-01-31T00:33:46.992Z,14.30
2023-01-31T00:36:16.781Z,19.40
2023-01-31T00:38:44.680Z,21.03
2023-01-31T00:41:11.727Z,16.63
2023-01-31T00:43:38.613Z,16.30
2023-01-31T00:46:05.130Z,19.93
2023-01-31T00:48:32.410Z,15.47
2023-01-31T00:50:59.394Z,14.90
2023-01-31T00:53:25.910Z,19.10
2023-01-31T00:55:54.289Z,20.13
2023-01-31T00:58:20.934Z,15.73
2023-01-31T01:00:47.706Z,21.63
2023-01-31T01:03:14.795Z,26.87
2023-01-31T01:05:41.661Z,23.00
2023-01-31T01:08:08.153Z,26.27
2023-01-31T01:10:34.720Z,20.43
2023-01-31T01:13:01.620Z,23.97
2023-01-31T01:15:28.168Z,17.07
2023-01-31T01:17:55.454Z,31.00
2023-01-31T01:20:21.873Z,28.97
2023-01-31T01:22:48.322Z,20.93
2023-01-31T01:25:14.727Z,26.27
2023-01-31T01:27:41.139Z,15.57
2023-01-31T01:30:08.324Z,13.80
2023-01-31T01:32:34.803Z,13.47
2023-01-31T01:35:02.006Z,18.93
2023-01-31T01:37:30.295Z,13.53
2023-01-31T01:39:56.742Z,14.50
2023-01-31T01:42:24.285Z,11.47
2023-01-31T01:44:58.141Z,18.17
2023-01-31T01:47:44.592Z,14.80
2023-01-31T01:50:38.785Z,20.33
2023-01-31T01:53:11.080Z,18.00
2023-01-31T01:55:42.235Z,16.00
2023-01-31T01:58:12.091Z,16.90
2023-01-31T02:00:39.496Z,16.37
2023-01-31T02:03:08.045Z,17.33
2023-01-31T02:05:41.199Z,18.23
2023-01-31T02:08:07.773Z,12.97
2023-01-31T02:10:43.264Z,15.47
2023-01-31T02:13:11.629Z,20.50
2023-01-31T02:15:38.060Z,21.53
2023-01-31T02:18:05.898Z,22.47
2023-01-31T02:20:54.266Z,22.20
2023-01-31T02:23:23.863Z,23.77
2023-01-31T02:26:24.523Z,16.70
2023-01-31T02:29:00.099Z,21.27
2023-01-31T02:31:49.691Z,19.37
2023-01-31T02:34:25.002Z,17.00
2023-01-31T02:37:08.533Z,26.30
2023-01-31T02:40:04.265Z,25.67
2023-01-31T02:42:54.852Z,22.27
2023-01-31T02:45:56.605Z,21.47
2023-01-31T02:48:53.429Z,17.77
2023-01-31T02:51:23.016Z,20.23
2023-01-31T02:53:58.148Z,24.43
2023-01-31T02:56:30.753Z,19.83
2023-01-31T02:59:16.304Z,32.50
2023-01-31T03:01:48.712Z,19.97
2023-01-31T03:04:15.446Z,22.17
2023-01-31T03:06:59.876Z,10.50
2023-01-31T03:09:40.293Z,26.50
2023-01-31T03:12:30.666Z,23.13
2023-01-31T03:15:55.341Z,21.53
2023-01-31T03:18:25.330Z,23.47
2023-01-31T03:21:00.663Z,21.20
2023-01-31T03:23:29.855Z,29.20
2023-01-31T03:25:58.340Z,18.93
2023-01-31T03:28:30.045Z,29.50
2023-01-31T03:31:07.855Z,22.60
2023-01-31T03:33:40.415Z,25.17
2023-01-31T03:36:30.212Z,20.03
2023-01-31T03:39:33.954Z,17.53
2023-01-31T03:42:18.794Z,28.47
2023-01-31T03:45:10.045Z,20.10
2023-01-31T03:47:39.089Z,20.17
2023-01-31T03:50:12.134Z,21.70
2023-01-31T03:52:43.923Z,23.17
2023-01-31T03:55:17.036Z,11.20
2023-01-31T03:57:46.329Z,19.60
2023-01-31T04:00:15.802Z,16.90
2023-01-31T04:02:43.681Z,26.07
2023-01-31T04:05:13.456Z,29.67
2023-01-31T04:07:40.209Z,15.60
2023-01-31T04:10:12.303Z,17.53
2023-01-31T04:12:39.003Z,29.33
2023-01-31T04:15:06.769Z,26.97
2023-01-31T04:17:33.422Z,17.77
2023-01-31T04:20:00.238Z,20.27
2023-01-31T04:22:26.660Z,20.03
2023-01-31T04:24:53.536Z,22.07
2023-01-31T04:27:19.936Z,23.17
2023-01-31T04:29:46.458Z,22.83
2023-01-31T04:32:12.946Z,23.17
2023-01-31T04:34:39.342Z,26.80
2023-01-31T04:37:06.513Z,22.97
2023-01-31T04:39:33.305Z,26.90
2023-01-31T04:41:59.842Z,14.57
2023-01-31T04:44:26.299Z,23.30
2023-01-31T04:46:52.805Z,12.33
2023-01-31T04:49:19.239Z,17.20
2023-01-31T04:51:45.697Z,21.20
2023-01-31T04:54:12.247Z,14.83
2023-01-31T04:56:38.661Z,17.60
2023-01-31T04:59:05.170Z,18.90
2023-01-31T05:01:31.902Z,19.27
2023-01-31T05:03:58.413Z,20.37
2023-01-31T05:06:24.866Z,20.13
2023-01-31T05:08:54.345Z,21.33
2023-01-31T05:11:21.229Z,20.07
2023-01-31T05:13:48.094Z,23.77
2023-01-31T05:16:14.613Z,18.03
2023-01-31T05:18:41.061Z,27.27
2023-01-31T05:21:08.228Z,17.87
2023-01-31T05:23:34.845Z,14.50
2023-01-31T05:26:01.320Z,14.60
2023-01-31T05:28:27.783Z,17.80
2023-01-31T05:30:54.972Z,15.40
2023-01-31T05:33:21.546Z,15.03
2023-01-31T05:35:48.697Z,17.00
2023-01-31T05:38:15.465Z,23.50
2023-01-31T05:40:41.919Z,17.47
2023-01-31T05:43:08.387Z,11.63
2023-01-31T05:45:34.842Z,18.53
2023-01-31T05:48:02.310Z,14.87
2023-01-31T05:50:28.933Z,18.00
2023-01-31T05:52:59.513Z,19.90
2023-01-31T05:55:26.879Z,16.57
2023-01-31T05:57:53.985Z,18.80
2023-01-31T06:00:21.031Z,14.90
2023-01-31T06:02:48.194Z,19.87
2023-01-31T06:05:14.945Z,21.20
2023-01-31T06:07:41.527Z,14.07
2023-01-31T06:10:10.308Z,14.77
2023-01-31T06:12:36.837Z,12.83
2023-01-31T06:15:04.088Z,18.87
2023-01-31T06:17:31.356Z,19.70
2023-01-31T06:19:57.953Z,16.60
2023-01-31T06:22:24.457Z,19.17
2023-01-31T06:24:50.869Z,12.40
2023-01-31T06:27:17.265Z,20.07
2023-01-31T06:29:43.683Z,16.67
2023-01-31T06:32:10.119Z,16.40
2023-01-31T06:34:36.583Z,22.63
2023-01-31T06:37:03.114Z,20.90
2023-01-31T06:39:29.498Z,19.23
2023-01-31T06:41:55.917Z,24.80
2023-01-31T06:44:22.896Z,14.93
2023-01-31T06:46:49.313Z,19.67
2023-01-31T06:49:15.818Z,17.63
2023-01-31T06:51:42.218Z,23.70
2023-01-31T06:54:08.629Z,20.77
2023-01-31T06:56:35.086Z,19.07
2023-01-31T06:59:01.571Z,28.27
2023-01-31T07:01:28.035Z,15.37
2023-01-31T07:03:54.511Z,28.07
2023-01-31T07:06:22.308Z,22.73
2023-01-31T07:08:48.868Z,24.27
2023-01-31T07:11:15.333Z,25.67
2023-01-31T07:13:41.767Z,23.27
2023-01-31T07:16:08.256Z,26.13
2023-01-31T07:18:35.071Z,21.80
2023-01-31T07:21:01.692Z,20.53
2023-01-31T07:23:28.162Z,18.60
2023-01-31T07:25:54.533Z,28.63
2023-01-31T07:28:20.993Z,16.40
2023-01-31T07:30:48.417Z,20.57
2023-01-31T07:33:14.902Z,19.83
2023-01-31T07:35:44.423Z,24.10
2023-01-31T07:38:11.523Z,18.20
2023-01-31T07:40:40.230Z,16.90
2023-01-31T07:43:06.676Z,15.37
2023-01-31T07:45:33.683Z,18.60
2023-01-31T07:48:00.540Z,21.77
2023-01-31T07:50:29.928Z,21.33
2023-01-31T07:52:58.146Z,20.10
2023-01-31T07:55:25.209Z,22.97
2023-01-31T07:57:51.668Z,20.37
2023-01-31T08:00:37.176Z,19.70
2023-01-31T08:03:22.751Z,21.23
2023-01-31T08:05:49.192Z,21.40
2023-01-31T08:08:15.608Z,19.47
2023-01-31T08:10:42.054Z,15.33
2023-01-31T08:13:11.052Z,25.07
2023-01-31T08:15:37.465Z,33.23
2023-01-31T08:18:06.322Z,27.77
2023-01-31T08:20:33.658Z,23.93
2023-01-31T08:23:00.220Z,26.43
2023-01-31T08:25:29.310Z,26.20
2023-01-31T08:27:59.202Z,36.97
2023-01-31T08:30:25.948Z,30.03
2023-01-31T08:32:52.603Z,23.47
2023-01-31T08:35:19.352Z,21.90
2023-01-31T08:37:46.471Z,34.00
2023-01-31T08:40:13.245Z,29.43
2023-01-31T08:42:39.819Z,24.80
2023-01-31T08:45:07.231Z,26.07
2023-01-31T08:47:33.949Z,24.43
2023-01-31T08:50:00.388Z,26.23
2023-01-31T08:52:26.809Z,25.80
2023-01-31T08:54:53.193Z,26.40
2023-01-31T08:57:20.835Z,25.17
2023-01-31T08:59:47.482Z,26.53
2023-01-31T09:02:13.991Z,27.53
2023-01-31T09:04:40.425Z,26.53
2023-01-31T09:07:06.878Z,32.47
2023-01-31T09:09:33.883Z,32.33
2023-01-31T09:12:00.328Z,25.00
2023-01-31T09:14:26.721Z,27.13
2023-01-31T09:16:53.269Z,26.87
2023-01-31T09:19:19.811Z,27.50
2023-01-31T09:21:46.413Z,29.50
2023-01-31T09:24:12.877Z,31.10
2023-01-31T09:26:39.442Z,26.70
2023-01-31T09:29:05.844Z,33.37
2023-01-31T09:31:32.432Z,25.53
2023-01-31T09:33:59.114Z,23.93
2023-01-31T09:36:25.593Z,27.77
2023-01-31T09:38:56.753Z,25.17
2023-01-31T09:41:39.901Z,33.70
2023-01-31T09:44:21.111Z,27.23
2023-01-31T09:46:51.844Z,30.07
2023-01-31T09:49:22.897Z,32.50
2023-01-31T09:51:54.928Z,21.30
2023-01-31T09:54:28.315Z,27.23
2023-01-31T09:57:01.428Z,26.63
2023-01-31T09:59:49.170Z,28.73
2023-01-31T10:02:24.790Z,25.23
2023-01-31T10:05:18.432Z,26.13
2023-01-31T10:07:57.681Z,32.73
2023-01-31T10:10:57.322Z,29.83
2023-01-31T10:13:30.356Z,23.43
2023-01-31T10:16:02.633Z,25.73
2023-01-31T10:18:42.504Z,28.47
2023-01-31T10:21:30.469Z,25.40
2023-01-31T10:24:11.200Z,27.80
2023-01-31T10:26:40.672Z,26.70
2023-01-31T10:29:47.985Z,24.67
2023-01-31T10:32:26.461Z,32.50
2023-01-31T10:35:03.612Z,27.67
2023-01-31T10:37:39.284Z,31.97
2023-01-31T10:40:16.782Z,29.20
2023-01-31T10:42:48.337Z,33.30
2023-01-31T10:45:23.529Z,25.07
2023-01-31T10:47:52.105Z,28.43
2023-01-31T10:50:18.922Z,31.63
2023-01-31T10:52:58.039Z,35.60
2023-01-31T10:55:52.333Z,30.90
2023-01-31T10:58:22.289Z,38.97
2023-01-31T11:00:48.913Z,30.50
2023-01-31T11:03:15.994Z,26.87
2023-01-31T11:05:56.564Z,34.17
2023-01-31T11:08:48.167Z,36.13
2023-01-31T11:11:20.028Z,25.93
2023-01-31T11:14:04.581Z,35.63
2023-01-31T11:16:38.971Z,30.50
2023-01-31T11:19:20.903Z,22.97
2023-01-31T11:21:51.867Z,30.47
2023-01-31T11:24:21.651Z,30.10
2023-01-31T11:27:07.713Z,23.70
2023-01-31T11:29:37.608Z,32.03
2023-01-31T11:32:06.981Z,29.20
2023-01-31T11:34:33.998Z,22.03
2023-01-31T11:37:20.649Z,23.07
2023-01-31T11:40:05.618Z,24.73
2023-01-31T11:42:32.616Z,21.57
2023-01-31T11:45:18.905Z,29.63
2023-01-31T11:48:13.820Z,30.90
2023-01-31T11:50:44.843Z,23.40
2023-01-31T11:53:24.113Z,24.37
2023-01-31T11:55:52.357Z,20.80
2023-01-31T11:58:24.820Z,14.63
2023-01-31T12:00:54.686Z,16.03
2023-01-31T12:03:22.825Z,22.23
2023-01-31T12:06:01.083Z,22.40
2023-01-31T12:08:38.629Z,16.07
2023-01-31T12:11:29.914Z,16.30
2023-01-31T12:14:16.733Z,17.40
2023-01-31T12:16:44.913Z,18.50
2023-01-31T12:19:11.268Z,15.50
2023-01-31T12:21:58.179Z,10.87
2023-01-31T12:24:52.287Z,13.87
2023-01-31T12:27:30.875Z,13.83
2023-01-31T12:30:03.445Z,11.73
2023-01-31T12:33:11.715Z,12.03
2023-01-31T12:35:59.945Z,14.60
2023-01-31T12:38:42.564Z,9.13
2023-01-31T12:41:19.355Z,8.93
2023-01-31T12:44:10.474Z,6.70
2023-01-31T12:47:08.676Z,9.00
2023-01-31T12:49:58.591Z,8.40
2023-01-31T12:52:32.253Z,9.63
2023-01-31T12:54:58.638Z,5.83
2023-01-31T12:57:35.889Z,6.90
2023-01-31T13:00:33.750Z,4.47
2023-01-31T13:03:09.638Z,4.63
2023-01-31T13:05:44.631Z,4.83
2023-01-31T13:08:18.972Z,5.63
2023-01-31T13:10:49.555Z,7.77
2023-01-31T13:13:32.191Z,5.47
2023-01-31T13:16:03.200Z,3.87
2023-01-31T13:18:32.975Z,3.53
2023-01-31T13:21:02.474Z,5.27
2023-01-31T13:23:40.369Z,3.23
2023-01-31T13:26:14.666Z,4.13
2023-01-31T13:28:46.602Z,5.40
2023-01-31T13:31:23.489Z,5.30
2023-01-31T13:33:59.028Z,4.20
2023-01-31T13:36:46.493Z,5.00
2023-01-31T13:39:19.594Z,3.40
2023-01-31T13:41:46.055Z,2.43
2023-01-31T13:44:14.305Z,2.93
2023-01-31T13:46:46.770Z,3.47
2023-01-31T13:49:25.620Z,4.07
2023-01-31T13:53:01.930Z,3.10
2023-01-31T13:55:38.604Z,4.47
2023-01-31T13:58:13.277Z,4.30
2023-01-31T14:00:42.368Z,2.93
2023-01-31T14:03:12.131Z,5.87
2023-01-31T14:05:50.731Z,7.27
2023-01-31T14:08:37.380Z,6.60
2023-01-31T14:11:19.110Z,5.87
2023-01-31T14:13:47.517Z,8.10
2023-01-31T14:16:36.981Z,6.30
2023-01-31T14:19:05.405Z,8.83
2023-01-31T14:21:32.276Z,6.73
2023-01-31T14:24:00.339Z,6.03
2023-01-31T14:26:44.090Z,6.97
2023-01-31T14:29:16.222Z,14.50
2023-01-31T14:31:44.313Z,10.33
2023-01-31T14:34:30.973Z,14.50
2023-01-31T14:37:33.666Z,10.13
2023-01-31T14:40:16.380Z,10.37
2023-01-31T14:43:07.466Z,10.07
2023-01-31T14:45:40.519Z,11.20
2023-01-31T14:48:18.989Z,11.03
2023-01-31T14:51:04.807Z,14.37
2023-01-31T14:53:53.198Z,9.13
2023-01-31T14:56:26.820Z,15.80
2023-01-31T14:58:53.872Z,15.10
2023-01-31T15:01:22.239Z,13.17
2023-01-31T15:03:54.781Z,12.97
2023-01-31T15:06:40.423Z,16.43
2023-01-31T15:09:16.019Z,15.03
2023-01-31T15:11:47.488Z,14.03
2023-01-31T15:14:33.767Z,14.40
2023-01-31T15:17:04.342Z,12.83
2023-01-31T15:19:41.602Z,12.30
2023-01-31T15:22:09.745Z,14.40
2023-01-31T15:24:39.236Z,13.20
2023-01-31T15:27:17.518Z,11.07
2023-01-31T15:30:05.299Z,13.30
2023-01-31T15:32:40.702Z,15.47
2023-01-31T15:35:22.686Z,16.40
2023-01-31T15:37:56.801Z,12.93
2023-01-31T15:40:25.950Z,17.77
2023-01-31T15:42:52.395Z,19.00
2023-01-31T15:45:30.042Z,20.57
2023-01-31T15:47:57.684Z,13.13
2023-01-31T15:50:24.460Z,19.23
2023-01-31T15:52:50.842Z,15.47
2023-01-31T15:55:19.504Z,13.37
2023-01-31T15:57:55.429Z,14.33
2023-01-31T16:00:32.767Z,13.30
2023-01-31T16:03:03.116Z,17.97
2023-01-31T16:05:32.861Z,10.73
2023-01-31T16:08:01.311Z,21.60
2023-01-31T16:10:29.503Z,14.80
2023-01-31T16:12:57.383Z,14.33
2023-01-31T16:15:25.631Z,15.80
2023-01-31T16:17:53.652Z,16.50
2023-01-31T16:20:44.525Z,19.07
2023-01-31T16:23:30.536Z,15.97
2023-01-31T16:26:07.486Z,12.30
2023-01-31T16:28:50.725Z,12.30
2023-01-31T16:31:19.259Z,17.47
2023-01-31T16:33:52.023Z,11.67
2023-01-31T16:36:47.954Z,14.47
2023-01-31T16:39:27.950Z,13.73
2023-01-31T16:41:58.045Z,10.47
2023-01-31T16:44:28.805Z,16.30
2023-01-31T16:46:55.363Z,14.83
2023-01-31T16:49:29.836Z,10.97
2023-01-31T16:52:28.439Z,16.77
2023-01-31T16:55:00.668Z,21.10
2023-01-31T16:57:35.842Z,16.13
2023-01-31T17:00:06.887Z,16.27
2023-01-31T17:02:39.474Z,17.77
2023-01-31T17:05:16.473Z,21.87
2023-01-31T17:07:45.147Z,11.73
2023-01-31T17:10:22.359Z,14.50
2023-01-31T17:12:49.974Z,19.67
2023-01-31T17:15:19.293Z,20.57
2023-01-31T17:17:47.061Z,13.90
2023-01-31T17:20:18.918Z,24.37
2023-01-31T17:22:50.446Z,14.43
2023-01-31T17:25:25.444Z,18.93
2023-01-31T17:27:52.076Z,25.40
2023-01-31T17:30:22.396Z,16.70
2023-01-31T17:32:49.243Z,15.13
2023-01-31T17:35:21.506Z,15.73
2023-01-31T17:37:48.437Z,12.57
2023-01-31T17:40:15.060Z,15.87
2023-01-31T17:42:42.081Z,21.00
2023-01-31T17:45:18.056Z,17.33
2023-01-31T17:47:45.261Z,16.63
2023-01-31T17:50:22.308Z,13.77
2023-01-31T17:52:48.927Z,19.67
2023-01-31T17:55:15.624Z,18.30
2023-01-31T17:57:42.036Z,17.00
2023-01-31T18:00:11.711Z,17.03
2023-01-31T18:02:42.253Z,23.73
2023-01-31T18:05:13.358Z,22.67
2023-01-31T18:07:40.165Z,17.73
2023-01-31T18:10:07.133Z,18.93
2023-01-31T18:12:35.473Z,22.80
2023-01-31T18:15:03.515Z,18.80
2023-01-31T18:17:29.916Z,26.23
2023-01-31T18:19:57.313Z,25.13
2023-01-31T18:22:23.773Z,24.47
2023-01-31T18:24:50.399Z,29.77
2023-01-31T18:27:16.928Z,21.30
2023-01-31T18:29:43.417Z,20.83
2023-01-31T18:32:10.652Z,24.30
2023-01-31T18:34:37.765Z,20.80
2023-01-31T18:37:06.744Z,26.23
2023-01-31T18:39:33.638Z,28.37
2023-01-31T18:42:00.221Z,20.57
2023-01-31T18:44:27.822Z,27.77
2023-01-31T18:46:54.320Z,28.43
2023-01-31T18:49:20.816Z,22.27
2023-01-31T18:51:48.463Z,24.53
2023-01-31T18:54:14.850Z,33.07
2023-01-31T18:56:41.574Z,25.07
2023-01-31T18:59:07.976Z,17.50
2023-01-31T19:01:34.408Z,25.73
2023-01-31T19:04:02.632Z,27.00
2023-01-31T19:06:35.273Z,25.43
2023-01-31T19:09:02.527Z,28.83
2023-01-31T19:11:29.910Z,29.07
2023-01-31T19:13:57.523Z,20.17
2023-01-31T19:16:26.772Z,23.97
2023-01-31T19:18:54.483Z,22.47
2023-01-31T19:21:23.311Z,18.07
2023-01-31T19:23:50.845Z,24.20
2023-01-31T19:26:17.920Z,18.27
2023-01-31T19:28:45.387Z,29.87
2023-01-31T19:31:14.347Z,32.47
2023-01-31T19:33:41.394Z,19.30
2023-01-31T19:36:12.786Z,23.03
2023-01-31T19:38:39.405Z,25.70
2023-01-31T19:41:14.438Z,21.97
2023-01-31T19:43:40.843Z,31.40
2023-01-31T19:46:07.682Z,25.33
2023-01-31T19:48:34.123Z,26.53
2023-01-31T19:51:09.366Z,20.43
2023-01-31T19:53:36.399Z,18.13
2023-01-31T19:56:03.505Z,26.30
2023-01-31T19:58:32.876Z,26.17
2023-01-31T20:01:01.721Z,28.00
2023-01-31T20:03:28.303Z,16.60
2023-01-31T20:05:54.939Z,16.43
2023-01-31T20:08:21.791Z,31.17
2023-01-31T20:10:48.179Z,23.57
2023-01-31T20:13:14.683Z,31.67
2023-01-31T20:15:41.090Z,21.93
2023-01-31T20:18:07.557Z,23.60
2023-01-31T20:20:33.999Z,19.97
2023-01-31T20:23:00.489Z,25.70
2023-01-31T20:25:26.991Z,19.23
2023-01-31T20:27:53.795Z,28.33
2023-01-31T20:30:23.335Z,20.60
2023-01-31T20:32:50.355Z,22.30
2023-01-31T20:35:17.059Z,22.43
2023-01-31T20:37:43.633Z,22.37
2023-01-31T20:40:10.699Z,20.37
2023-01-31T20:42:37.148Z,28.43
2023-01-31T20:45:03.948Z,23.33
2023-01-31T20:47:30.364Z,20.07
2023-01-31T20:49:57.027Z,25.63
2023-01-31T20:52:24.353Z,21.67
2023-01-31T20:54:50.904Z,23.63
2023-01-31T20:57:19.309Z,28.13
2023-01-31T20:59:45.770Z,20.17
2023-01-31T21:02:12.692Z,19.43
2023-01-31T21:04:39.100Z,22.80
2023-01-31T21:07:05.596Z,17.63
2023-01-31T21:09:32.033Z,22.77
2023-01-31T21:11:58.473Z,16.33
2023-01-31T21:14:25.024Z,15.80
2023-01-31T21:16:51.488Z,23.07
2023-01-31T21:19:18.201Z,25.47
2023-01-31T21:21:44.646Z,24.37
2023-01-31T21:24:11.034Z,24.27
2023-01-31T21:26:37.747Z,27.30
2023-01-31T21:29:04.230Z,23.13
2023-01-31T21:31:31.258Z,21.00
2023-01-31T21:33:58.135Z,21.90
2023-01-31T21:36:25.553Z,22.23
2023-01-31T21:38:52.787Z,23.23
2023-01-31T21:41:38.438Z,21.07
2023-01-31T21:44:04.876Z,23.63
2023-01-31T21:46:31.476Z,20.20
2023-01-31T21:48:59.764Z,25.83
2023-01-31T21:51:26.260Z,20.03
2023-01-31T21:53:53.612Z,19.50
2023-01-31T21:56:22.534Z,18.37
2023-01-31T21:58:49.189Z,25.77
2023-01-31T22:01:20.250Z,20.10
2023-01-31T22:03:48.832Z,27.17
2023-01-31T22:06:18.285Z,16.40
2023-01-31T22:08:45.044Z,23.50
2023-01-31T22:11:13.078Z,13.13
2023-01-31T22:13:43.023Z,27.17
2023-01-31T22:16:10.281Z,15.47
2023-01-31T22:18:37.606Z,21.17
2023-01-31T22:21:13.426Z,25.23
2023-01-31T22:23:41.323Z,25.63
2023-01-31T22:26:13.792Z,21.83
2023-01-31T22:28:40.421Z,19.00
2023-01-31T22:31:08.162Z,19.87
2023-01-31T22:33:37.321Z,15.60
2023-01-31T22:36:04.953Z,21.73
2023-01-31T22:38:31.676Z,25.47
2023-01-31T22:41:03.143Z,21.50
2023-01-31T22:43:30.021Z,20.70
2023-01-31T22:45:58.376Z,21.00
2023-01-31T22:48:25.926Z,27.77
2023-01-31T22:51:00.582Z,21.93
2023-01-31T22:53:29.156Z,24.17
2023-01-31T22:56:00.735Z,20.37
2023-01-31T22:58:27.175Z,29.20
2023-01-31T23:00:53.587Z,18.80
2023-01-31T23:03:20.037Z,17.90
2023-01-31T23:05:46.557Z,26.33
2023-01-31T23:08:13.384Z,24.87
2023-01-31T23:10:40.346Z,31.50
2023-01-31T23:13:07.537Z,26.33
2023-01-31T23:15:34.430Z,30.07
2023-01-31T23:18:01.215Z,23.87
2023-01-31T23:20:28.463Z,28.27
2023-01-31T23:22:56.677Z,20.10
2023-01-31T23:25:26.069Z,26.83
2023-01-31T23:27:55.100Z,30.57
2023-01-31T23:30:21.884Z,21.07
2023-01-31T23:32:49.090Z,19.53
2023-01-31T23:35:15.654Z,22.50
2023-01-31T23:37:42.630Z,21.13
2023-01-31T23:40:09.790Z,28.17
2023-01-31T23:42:36.340Z,34.10
2023-01-31T23:45:02.867Z,27.83
2023-01-31T23:47:29.422Z,22.10
2023-01-31T23:49:56.106Z,23.27
2023-01-31T23:52:22.526Z,21.43
2023-01-31T23:54:48.962Z,28.60
2023-01-31T23:57:15.410Z,24.60
2023-01-31T23:59:41.881Z,32.37
